createdAt,value
2018-11-03T00:01:16.139Z,8.10
2018-11-03T00:03:44.392Z,8.20
2018-11-03T00:06:12.626Z,8.40
2018-11-03T00:08:40.874Z,8.30
2018-11-03T00:11:09.104Z,8.20
2018-11-03T00:13:37.379Z,8.00
2018-11-03T00:16:05.934Z,7.90
2018-11-03T00:18:34.182Z,8.10
2018-11-03T00:21:02.499Z,8.10
2018-11-03T00:23:30.807Z,8.10
2018-11-03T00:25:59.042Z,8.20
2018-11-03T00:28:27.397Z,8.50
2018-11-03T00:30:55.686Z,8.50
2018-11-03T00:33:23.966Z,8.30
2018-11-03T00:35:52.206Z,8.30
2018-11-03T00:38:20.473Z,8.30
2018-11-03T00:40:48.730Z,8.30
2018-11-03T00:43:17.094Z,8.40
2018-11-03T00:45:45.329Z,8.40
2018-11-03T00:48:13.638Z,8.50
2018-11-03T00:50:41.931Z,8.70
2018-11-03T00:53:10.808Z,8.70
2018-11-03T00:55:39.161Z,8.60
2018-11-03T00:58:07.362Z,8.60
2018-11-03T01:00:35.634Z,8.60
2018-11-03T01:03:03.937Z,8.70
2018-11-03T01:05:32.185Z,8.70
2018-11-03T01:08:00.546Z,8.70
2018-11-03T01:10:28.918Z,8.60
2018-11-03T01:12:57.119Z,8.70
2018-11-03T01:15:25.421Z,8.70
2018-11-03T01:17:53.669Z,8.60
2018-11-03T01:20:21.954Z,8.70
2018-11-03T01:22:50.221Z,8.70
2018-11-03T01:25:18.506Z,8.80
2018-11-03T01:27:46.753Z,8.60
2018-11-03T01:30:16.242Z,8.70
2018-11-03T01:32:44.750Z,8.60
2018-11-03T01:35:12.972Z,8.60
2018-11-03T01:37:41.274Z,8.50
2018-11-03T01:40:11.044Z,8.60
2018-11-03T01:42:39.349Z,8.50
2018-11-03T01:45:07.694Z,8.50
2018-11-03T01:47:36.366Z,8.60
2018-11-03T01:50:06.561Z,8.50
2018-11-03T01:52:35.704Z,8.50
2018-11-03T01:55:04.066Z,8.60
2018-11-03T01:57:32.278Z,8.90
2018-11-03T02:00:00.530Z,8.90
2018-11-03T02:02:28.743Z,8.80
2018-11-03T02:04:56.973Z,8.70
2018-11-03T02:07:25.225Z,8.90
2018-11-03T02:09:53.447Z,9.00
2018-11-03T02:12:21.698Z,9.00
2018-11-03T02:14:49.981Z,9.20
2018-11-03T02:17:18.203Z,9.10
2018-11-03T02:19:46.502Z,9.10
2018-11-03T02:22:14.773Z,9.10
2018-11-03T02:24:42.982Z,9.20
2018-11-03T02:27:11.202Z,9.20
2018-11-03T02:29:39.407Z,9.00
2018-11-03T02:32:07.630Z,9.10
2018-11-03T02:34:35.874Z,9.20
2018-11-03T02:37:04.210Z,9.10
2018-11-03T02:39:32.507Z,9.10
2018-11-03T02:42:00.778Z,9.00
2018-11-03T02:44:29.014Z,9.00
2018-11-03T02:46:57.300Z,9.20
2018-11-03T02:49:25.579Z,9.20
2018-11-03T02:51:53.807Z,9.30
2018-11-03T02:54:22.072Z,9.40
2018-11-03T02:56:50.306Z,9.20
2018-11-03T02:59:18.583Z,9.10
2018-11-03T03:01:46.831Z,9.00
2018-11-03T03:04:15.153Z,9.00
2018-11-03T03:06:43.433Z,9.10
2018-11-03T03:09:11.666Z,9.10
2018-11-03T03:11:39.892Z,9.10
2018-11-03T03:14:08.116Z,9.10
2018-11-03T03:16:36.393Z,9.10
2018-11-03T03:19:04.922Z,9.10
2018-11-03T03:21:33.202Z,9.20
2018-11-03T03:24:01.484Z,9.20
2018-11-03T03:26:29.936Z,9.10
2018-11-03T03:28:58.196Z,8.90
2018-11-03T03:31:26.441Z,9.00
2018-11-03T03:33:54.741Z,8.90
2018-11-03T03:36:22.994Z,8.90
2018-11-03T03:38:51.327Z,9.00
2018-11-03T03:41:19.609Z,9.10
2018-11-03T03:43:47.822Z,9.10
2018-11-03T03:46:16.097Z,9.00
2018-11-03T03:48:44.369Z,9.00
2018-11-03T03:51:12.750Z,9.20
2018-11-03T03:53:40.989Z,9.20
2018-11-03T03:56:09.197Z,9.30
2018-11-03T03:58:37.454Z,9.30
2018-11-03T04:01:05.817Z,9.20
2018-11-03T04:03:34.061Z,9.00
2018-11-03T04:06:02.329Z,9.10
2018-11-03T04:08:30.569Z,9.30
2018-11-03T04:10:58.801Z,9.30
2018-11-03T04:13:27.130Z,9.40
2018-11-03T04:15:55.354Z,9.30
2018-11-03T04:18:23.625Z,9.40
2018-11-03T04:20:51.839Z,9.50
2018-11-03T04:23:20.081Z,9.40
2018-11-03T04:25:48.299Z,9.40
2018-11-03T04:28:16.649Z,9.60
2018-11-03T04:30:44.890Z,9.70
2018-11-03T04:33:13.125Z,9.70
2018-11-03T04:35:41.371Z,9.60
2018-11-03T04:38:09.685Z,9.70
2018-11-03T04:40:37.927Z,9.70
2018-11-03T04:43:06.326Z,9.70
2018-11-03T04:45:34.668Z,9.80
2018-11-03T04:48:02.846Z,9.70
2018-11-03T04:50:31.168Z,9.70
2018-11-03T04:52:59.510Z,9.40
2018-11-03T04:55:27.721Z,9.20
2018-11-03T04:57:56.001Z,9.30
2018-11-03T05:00:24.249Z,9.10
2018-11-03T05:02:52.597Z,9.00
2018-11-03T05:05:20.885Z,9.00
2018-11-03T05:07:49.118Z,8.90
2018-11-03T05:10:17.551Z,8.90
2018-11-03T05:12:45.795Z,8.80
2018-11-03T05:15:14.134Z,8.90
2018-11-03T05:17:42.341Z,8.80
2018-11-03T05:20:10.581Z,8.60
2018-11-03T05:22:38.815Z,8.40
2018-11-03T05:25:07.037Z,8.30
2018-11-03T05:27:35.369Z,8.50
2018-11-03T05:30:03.890Z,8.50
2018-11-03T05:32:32.287Z,8.50
2018-11-03T05:35:00.657Z,8.70
2018-11-03T05:37:28.949Z,8.80
2018-11-03T05:39:57.132Z,8.60
2018-11-03T05:42:25.374Z,8.60
2018-11-03T05:44:53.645Z,8.70
2018-11-03T05:47:21.862Z,8.60
2018-11-03T05:49:50.098Z,8.60
2018-11-03T05:52:18.366Z,8.70
2018-11-03T05:54:46.637Z,8.60
2018-11-03T05:57:14.942Z,8.60
2018-11-03T05:59:43.254Z,8.60
2018-11-03T06:02:11.586Z,8.40
2018-11-03T06:04:39.822Z,8.50
2018-11-03T06:07:08.089Z,8.40
2018-11-03T06:09:36.309Z,8.50
2018-11-03T06:12:05.054Z,8.50
2018-11-03T06:14:33.306Z,8.60
2018-11-03T06:17:02.691Z,8.50
2018-11-03T06:19:30.906Z,8.70
2018-11-03T06:21:59.125Z,8.70
2018-11-03T06:24:27.350Z,8.80
2018-11-03T06:26:55.585Z,8.90
2018-11-03T06:29:23.953Z,8.70
2018-11-03T06:31:52.265Z,8.80
2018-11-03T06:34:20.513Z,8.50
2018-11-03T06:36:48.802Z,8.40
2018-11-03T06:39:17.150Z,8.30
2018-11-03T06:41:45.415Z,8.10
2018-11-03T06:44:13.682Z,8.00
2018-11-03T06:46:42.020Z,8.10
2018-11-03T06:49:15.740Z,8.10
2018-11-03T06:51:44.052Z,8.20
2018-11-03T06:54:12.689Z,8.30
2018-11-03T06:56:40.949Z,8.40
2018-11-03T06:59:09.865Z,8.40
2018-11-03T07:01:38.152Z,8.30
2018-11-03T07:04:07.003Z,8.30
2018-11-03T07:06:35.366Z,8.30
2018-11-03T07:09:05.025Z,8.30
2018-11-03T07:11:33.322Z,8.20
2018-11-03T07:14:01.598Z,7.90
2018-11-03T07:16:29.879Z,7.90
2018-11-03T07:18:58.157Z,7.80
2018-11-03T07:21:26.389Z,7.70
2018-11-03T07:23:54.630Z,8.00
2018-11-03T07:26:22.882Z,8.10
2018-11-03T07:28:51.166Z,7.90
2018-11-03T07:31:19.429Z,8.10
2018-11-03T07:33:47.827Z,8.30
2018-11-03T07:36:16.366Z,8.30
2018-11-03T07:38:45.053Z,8.20
2018-11-03T07:41:13.484Z,8.20
2018-11-03T07:43:41.742Z,8.20
2018-11-03T07:46:09.985Z,8.20
2018-11-03T07:48:38.397Z,7.90
2018-11-03T07:51:06.737Z,8.00
2018-11-03T07:53:35.003Z,8.00
2018-11-03T07:56:03.289Z,8.50
2018-11-03T07:58:32.076Z,8.60
2018-11-03T08:01:00.333Z,8.70
2018-11-03T08:03:28.566Z,8.90
2018-11-03T08:05:57.069Z,8.90
2018-11-03T08:08:25.375Z,9.00
2018-11-03T08:10:54.129Z,8.80
2018-11-03T08:13:22.536Z,9.00
2018-11-03T08:15:50.927Z,9.30
2018-11-03T08:18:19.155Z,9.50
2018-11-03T08:20:47.469Z,9.60
2018-11-03T08:23:15.724Z,9.80
2018-11-03T08:25:43.951Z,9.90
2018-11-03T08:28:12.208Z,10.10
2018-11-03T08:30:40.522Z,9.90
2018-11-03T08:33:11.090Z,10.10
2018-11-03T08:35:39.513Z,9.70
2018-11-03T08:38:07.859Z,9.60
2018-11-03T08:40:36.165Z,10.00
2018-11-03T08:43:05.016Z,10.30
2018-11-03T08:45:33.329Z,10.90
2018-11-03T08:48:01.678Z,11.50
2018-11-03T08:50:29.990Z,11.80
2018-11-03T08:52:58.853Z,11.90
2018-11-03T08:55:27.096Z,12.00
2018-11-03T08:57:55.397Z,12.40
2018-11-03T09:00:23.866Z,12.50
2018-11-03T09:02:52.002Z,12.40
2018-11-03T09:05:20.306Z,12.40
2018-11-03T09:07:48.607Z,12.30
2018-11-03T09:10:16.933Z,12.30
2018-11-03T09:12:45.202Z,11.60
2018-11-03T09:15:14.258Z,12.30
2018-11-03T09:17:43.232Z,12.30
2018-11-03T09:20:12.486Z,12.10
2018-11-03T09:22:40.777Z,12.60
2018-11-03T09:25:11.238Z,13.10
2018-11-03T09:27:40.532Z,13.20
2018-11-03T09:30:11.173Z,13.10
2018-11-03T09:32:39.639Z,13.50
2018-11-03T09:35:08.665Z,13.80
2018-11-03T09:37:37.036Z,13.80
2018-11-03T09:40:06.692Z,14.30
2018-11-03T09:42:34.935Z,14.30
2018-11-03T09:45:03.369Z,14.30
2018-11-03T09:47:31.582Z,14.30
2018-11-03T09:49:59.857Z,14.30
2018-11-03T09:52:28.426Z,14.60
2018-11-03T09:54:56.973Z,14.70
2018-11-03T09:57:25.309Z,14.70
2018-11-03T09:59:53.516Z,14.90
2018-11-03T10:02:21.796Z,15.10
2018-11-03T10:04:50.125Z,15.30
2018-11-03T10:07:19.133Z,15.20
2018-11-03T10:09:47.367Z,15.10
2018-11-03T10:12:15.629Z,15.00
2018-11-03T10:14:43.845Z,14.70
2018-11-03T10:17:12.107Z,14.30
2018-11-03T10:19:40.469Z,14.40
2018-11-03T10:22:08.881Z,14.40
2018-11-03T10:24:37.221Z,14.10
2018-11-03T10:27:05.539Z,14.10
2018-11-03T10:29:33.826Z,14.10
2018-11-03T10:32:02.764Z,13.70
2018-11-03T10:34:31.176Z,13.70
2018-11-03T10:36:59.557Z,13.40
2018-11-03T10:39:27.797Z,13.10
2018-11-03T10:41:56.042Z,12.70
2018-11-03T10:44:25.836Z,13.10
2018-11-03T10:46:54.502Z,13.20
2018-11-03T10:49:23.465Z,13.40
2018-11-03T10:51:52.271Z,13.80
2018-11-03T10:54:20.746Z,13.50
2018-11-03T10:56:48.973Z,13.30
2018-11-03T10:59:17.229Z,13.20
2018-11-03T11:01:50.985Z,13.20
2018-11-03T11:04:24.816Z,13.50
2018-11-03T11:06:58.313Z,13.70
2018-11-03T11:09:36.057Z,13.60
2018-11-03T11:12:10.440Z,13.50
2018-11-03T11:14:38.741Z,13.40
2018-11-03T11:17:07.131Z,13.80
2018-11-03T11:19:35.414Z,13.70
2018-11-03T11:22:03.688Z,13.70
2018-11-03T11:24:31.974Z,14.00
2018-11-03T11:27:00.326Z,14.50
2018-11-03T11:29:28.674Z,14.00
2018-11-03T11:31:56.975Z,14.00
2018-11-03T11:34:25.237Z,14.30
2018-11-03T11:36:53.498Z,14.20
2018-11-03T11:39:21.704Z,13.80
2018-11-03T11:41:49.945Z,14.10
2018-11-03T11:44:18.247Z,14.10
2018-11-03T11:46:46.553Z,14.10
2018-11-03T11:49:15.227Z,14.20
2018-11-03T11:51:43.489Z,14.60
2018-11-03T11:54:11.870Z,14.00
2018-11-03T11:56:40.221Z,14.20
2018-11-03T11:59:08.482Z,14.20
2018-11-03T12:01:36.862Z,13.90
2018-11-03T12:04:05.302Z,14.30
2018-11-03T12:06:33.663Z,14.30
2018-11-03T12:09:01.995Z,14.10
2018-11-03T12:11:30.313Z,13.90
2018-11-03T12:13:58.761Z,14.30
2018-11-03T12:16:27.130Z,14.10
2018-11-03T12:18:55.383Z,13.70
2018-11-03T12:21:23.625Z,14.10
2018-11-03T12:23:51.842Z,14.60
2018-11-03T12:26:20.175Z,14.30
2018-11-03T12:28:48.458Z,13.70
2018-11-03T12:31:16.728Z,13.40
2018-11-03T12:33:45.049Z,13.90
2018-11-03T12:36:13.385Z,13.80
2018-11-03T12:38:41.653Z,13.70
2018-11-03T12:41:09.864Z,14.00
2018-11-03T12:43:38.254Z,14.00
2018-11-03T12:46:06.645Z,13.90
2018-11-03T12:48:34.847Z,14.00
2018-11-03T12:51:03.268Z,14.20
2018-11-03T12:53:31.647Z,14.20
2018-11-03T12:55:59.906Z,13.90
2018-11-03T12:58:28.194Z,13.80
2018-11-03T13:00:56.422Z,14.10
2018-11-03T13:03:24.693Z,14.60
2018-11-03T13:05:53.015Z,14.40
2018-11-03T13:08:21.423Z,14.40
2018-11-03T13:10:49.594Z,14.10
2018-11-03T13:13:17.827Z,13.90
2018-11-03T13:15:46.147Z,13.90
2018-11-03T13:18:14.447Z,13.90
2018-11-03T13:20:42.770Z,13.70
2018-11-03T13:23:17.567Z,13.60
2018-11-03T13:25:45.882Z,13.70
2018-11-03T13:28:14.130Z,13.80
2018-11-03T13:30:42.453Z,13.70
2018-11-03T13:33:10.803Z,13.70
2018-11-03T13:35:39.069Z,13.50
2018-11-03T13:38:07.387Z,13.50
2018-11-03T13:40:35.726Z,13.20
2018-11-03T13:43:04.050Z,13.50
2018-11-03T13:45:32.383Z,13.30
2018-11-03T13:48:00.689Z,13.20
2018-11-03T13:50:29.101Z,13.00
2018-11-03T13:52:57.420Z,12.70
2018-11-03T13:55:25.854Z,12.70
2018-11-03T13:57:54.099Z,12.80
2018-11-03T14:00:22.363Z,12.20
2018-11-03T14:02:50.600Z,12.30
2018-11-03T14:05:18.886Z,12.20
2018-11-03T14:07:47.391Z,12.20
2018-11-03T14:10:16.791Z,12.70
2018-11-03T14:12:46.089Z,12.80
2018-11-03T14:15:15.767Z,13.10
2018-11-03T14:17:44.056Z,13.20
2018-11-03T14:20:13.505Z,13.40
2018-11-03T14:22:42.583Z,13.30
2018-11-03T14:25:12.537Z,13.20
2018-11-03T14:27:41.296Z,13.10
2018-11-03T14:30:10.422Z,13.10
2018-11-03T14:32:38.666Z,12.60
2018-11-03T14:35:07.486Z,12.70
2018-11-03T14:37:35.822Z,12.40
2018-11-03T14:40:04.350Z,12.40
2018-11-03T14:42:32.671Z,12.40
2018-11-03T14:45:01.011Z,12.80
2018-11-03T14:47:29.306Z,13.20
2018-11-03T14:49:57.814Z,13.20
2018-11-03T14:52:26.151Z,13.20
2018-11-03T14:54:54.418Z,13.30
2018-11-03T14:57:22.694Z,13.20
2018-11-03T14:59:51.294Z,13.00
2018-11-03T15:02:19.645Z,13.30
2018-11-03T15:04:47.976Z,13.20
2018-11-03T15:07:16.304Z,13.20
2018-11-03T15:09:44.582Z,12.90
2018-11-03T15:12:13.177Z,12.60
2018-11-03T15:14:41.508Z,12.70
2018-11-03T15:17:09.787Z,12.90
2018-11-03T15:19:38.290Z,13.10
2018-11-03T15:22:07.062Z,13.20
2018-11-03T15:24:35.450Z,13.00
2018-11-03T15:27:04.396Z,13.00
2018-11-03T15:29:32.734Z,13.10
2018-11-03T15:32:01.105Z,12.80
2018-11-03T15:34:29.558Z,12.60
2018-11-03T15:36:57.977Z,12.90
2018-11-03T15:39:26.263Z,13.20
2018-11-03T15:41:54.850Z,12.90
2018-11-03T15:44:23.144Z,12.90
2018-11-03T15:46:51.433Z,12.40
2018-11-03T15:49:19.679Z,12.40
2018-11-03T15:51:47.911Z,12.10
2018-11-03T15:54:16.444Z,12.00
2018-11-03T15:56:44.739Z,12.20
2018-11-03T15:59:12.994Z,12.00
2018-11-03T16:01:41.246Z,12.00
2018-11-03T16:04:09.476Z,12.20
2018-11-03T16:06:38.030Z,11.60
2018-11-03T16:09:09.155Z,11.40
2018-11-03T16:11:37.406Z,11.30
2018-11-03T16:14:05.733Z,11.60
2018-11-03T16:16:34.047Z,11.60
2018-11-03T16:19:02.335Z,11.50
2018-11-03T16:21:30.654Z,11.60
2018-11-03T16:23:58.926Z,11.30
2018-11-03T16:26:27.358Z,11.20
2018-11-03T16:28:55.609Z,11.30
2018-11-03T16:31:24.266Z,11.20
2018-11-03T16:33:52.533Z,11.20
2018-11-03T16:36:20.758Z,11.30
2018-11-03T16:38:49.059Z,11.40
2018-11-03T16:41:17.333Z,11.40
2018-11-03T16:43:45.626Z,11.60
2018-11-03T16:46:13.885Z,11.50
2018-11-03T16:48:42.204Z,11.60
2018-11-03T16:51:10.664Z,11.80
2018-11-03T16:53:39.082Z,11.70
2018-11-03T16:56:07.379Z,12.00
2018-11-03T16:58:35.810Z,11.90
2018-11-03T17:01:04.146Z,11.90
2018-11-03T17:03:32.459Z,11.60
2018-11-03T17:06:00.734Z,11.60
2018-11-03T17:08:29.008Z,11.50
2018-11-03T17:10:57.304Z,11.60
2018-11-03T17:13:25.589Z,11.60
2018-11-03T17:15:53.846Z,11.60
2018-11-03T17:18:22.231Z,11.60
2018-11-03T17:20:50.470Z,11.60
2018-11-03T17:23:18.813Z,11.60
2018-11-03T17:25:47.080Z,11.50
2018-11-03T17:28:15.397Z,11.50
2018-11-03T17:30:43.636Z,11.50
2018-11-03T17:33:11.881Z,11.60
2018-11-03T17:35:40.178Z,11.40
2018-11-03T17:38:08.426Z,11.30
2018-11-03T17:40:36.685Z,11.20
2018-11-03T17:43:05.038Z,11.40
2018-11-03T17:45:33.240Z,11.30
2018-11-03T17:48:01.562Z,11.40
2018-11-03T17:50:29.902Z,11.30
2018-11-03T17:52:58.238Z,11.40
2018-11-03T17:55:26.536Z,11.10
2018-11-03T17:57:54.804Z,11.20
2018-11-03T18:00:25.217Z,11.10
2018-11-03T18:02:53.380Z,11.00
2018-11-03T18:05:21.646Z,11.10
2018-11-03T18:07:49.898Z,11.10
2018-11-03T18:10:18.165Z,11.10
2018-11-03T18:12:46.451Z,11.10
2018-11-03T18:15:14.778Z,10.90
2018-11-03T18:17:43.190Z,10.80
2018-11-03T18:20:11.851Z,10.80
2018-11-03T18:22:40.453Z,10.50
2018-11-03T18:25:08.994Z,10.50
2018-11-03T18:27:37.370Z,10.30
2018-11-03T18:30:07.104Z,10.20
2018-11-03T18:32:35.414Z,10.40
2018-11-03T18:35:03.711Z,10.60
2018-11-03T18:37:31.965Z,10.90
2018-11-03T18:40:00.253Z,10.70
2018-11-03T18:42:28.530Z,10.50
2018-11-03T18:44:56.832Z,10.50
2018-11-03T18:47:25.099Z,10.60
2018-11-03T18:49:53.333Z,10.70
2018-11-03T18:52:21.646Z,10.80
2018-11-03T18:54:50.025Z,10.80
2018-11-03T18:57:18.389Z,10.80
2018-11-03T18:59:46.676Z,10.60
2018-11-03T19:02:15.078Z,10.30
2018-11-03T19:04:43.309Z,10.00
2018-11-03T19:07:11.610Z,9.70
2018-11-03T19:09:39.914Z,9.90
2018-11-03T19:12:08.293Z,10.10
2018-11-03T19:14:36.552Z,10.10
2018-11-03T19:17:05.269Z,9.90
2018-11-03T19:19:33.622Z,9.70
2018-11-03T19:22:01.830Z,9.80
2018-11-03T19:24:30.195Z,9.90
2018-11-03T19:26:58.474Z,10.00
2018-11-03T19:29:26.872Z,10.30
2018-11-03T19:31:56.100Z,10.40
2018-11-03T19:34:24.418Z,10.20
2018-11-03T19:36:52.710Z,9.80
2018-11-03T19:39:21.058Z,9.90
2018-11-03T19:41:49.408Z,9.80
2018-11-03T19:44:17.650Z,9.70
2018-11-03T19:46:45.895Z,9.80
2018-11-03T19:49:14.526Z,9.80
2018-11-03T19:51:42.837Z,9.90
2018-11-03T19:54:11.026Z,9.90
2018-11-03T19:56:39.244Z,9.70
2018-11-03T19:59:07.459Z,9.70
2018-11-03T20:01:35.709Z,9.30
2018-11-03T20:04:04.129Z,9.30
2018-11-03T20:06:32.464Z,9.50
2018-11-03T20:09:00.750Z,9.50
2018-11-03T20:11:29.073Z,9.50
2018-11-03T20:13:57.354Z,9.40
2018-11-03T20:16:25.566Z,9.40
2018-11-03T20:18:53.890Z,9.30
2018-11-03T20:21:22.162Z,9.20
2018-11-03T20:23:50.377Z,9.20
2018-11-03T20:26:18.652Z,9.20
2018-11-03T20:28:46.886Z,9.50
2018-11-03T20:31:15.163Z,9.30
2018-11-03T20:33:43.549Z,9.40
2018-11-03T20:36:11.867Z,9.40
2018-11-03T20:38:41.240Z,9.10
2018-11-03T20:41:09.518Z,9.20
2018-11-03T20:43:37.742Z,9.20
2018-11-03T20:46:06.177Z,9.20
2018-11-03T20:48:34.413Z,8.90
2018-11-03T20:51:09.857Z,9.00
2018-11-03T20:53:38.628Z,9.20
2018-11-03T20:56:07.490Z,9.20
2018-11-03T20:58:35.777Z,9.30
2018-11-03T21:01:04.362Z,9.10
2018-11-03T21:03:32.627Z,8.80
2018-11-03T21:06:00.930Z,9.00
2018-11-03T21:08:29.244Z,9.10
2018-11-03T21:10:57.625Z,8.70
2018-11-03T21:13:25.872Z,8.80
2018-11-03T21:15:54.159Z,8.90
2018-11-03T21:18:22.406Z,9.00
2018-11-03T21:20:50.727Z,8.90
2018-11-03T21:23:19.102Z,8.50
2018-11-03T21:25:47.367Z,8.50
2018-11-03T21:28:15.582Z,8.30
2018-11-03T21:30:43.789Z,8.20
2018-11-03T21:33:12.383Z,8.60
2018-11-03T21:35:40.550Z,8.60
2018-11-03T21:38:08.895Z,8.80
2018-11-03T21:40:37.100Z,9.00
2018-11-03T21:43:05.578Z,8.80
2018-11-03T21:45:33.970Z,8.60
2018-11-03T21:48:02.213Z,8.60
2018-11-03T21:50:30.514Z,8.30
2018-11-03T21:52:58.794Z,8.70
2018-11-03T21:55:27.063Z,8.90
2018-11-03T21:57:55.359Z,9.10
2018-11-03T22:00:23.692Z,9.10
2018-11-03T22:02:52.009Z,8.30
2018-11-03T22:05:20.295Z,8.00
2018-11-03T22:07:49.361Z,8.20
2018-11-03T22:10:17.712Z,8.30
2018-11-03T22:12:46.019Z,8.40
2018-11-03T22:15:14.334Z,8.20
2018-11-03T22:17:42.634Z,8.20
2018-11-03T22:20:11.768Z,8.30
2018-11-03T22:22:40.637Z,8.00
2018-11-03T22:25:10.165Z,8.00
2018-11-03T22:27:38.657Z,7.80
2018-11-03T22:30:08.578Z,7.70
2018-11-03T22:32:36.920Z,7.60
2018-11-03T22:35:05.341Z,7.70
2018-11-03T22:37:33.629Z,7.50
2018-11-03T22:40:01.865Z,7.30
2018-11-03T22:42:30.079Z,7.60
2018-11-03T22:44:58.397Z,7.50
2018-11-03T22:47:26.587Z,7.40
2018-11-03T22:49:54.789Z,7.50
2018-11-03T22:52:23.329Z,7.50
2018-11-03T22:54:51.617Z,7.50
2018-11-03T22:57:19.909Z,7.30
2018-11-03T22:59:48.149Z,7.70
2018-11-03T23:02:16.384Z,7.90
2018-11-03T23:04:44.645Z,7.70
2018-11-03T23:07:13.002Z,7.70
2018-11-03T23:09:41.261Z,7.30
2018-11-03T23:12:09.536Z,7.10
2018-11-03T23:14:37.850Z,7.40
2018-11-03T23:17:06.115Z,7.20
2018-11-03T23:19:34.777Z,7.10
2018-11-03T23:22:03.106Z,6.90
2018-11-03T23:24:31.395Z,6.60
2018-11-03T23:26:59.902Z,7.10
2018-11-03T23:29:28.211Z,7.30
2018-11-03T23:31:56.361Z,7.10
2018-11-03T23:34:25.027Z,7.10
2018-11-03T23:36:53.361Z,7.00
2018-11-03T23:39:21.602Z,7.10
2018-11-03T23:41:49.914Z,7.00
2018-11-03T23:44:18.216Z,7.30
2018-11-03T23:46:46.442Z,7.40
2018-11-03T23:49:14.670Z,7.30
2018-11-03T23:51:42.890Z,7.30
2018-11-03T23:54:11.198Z,7.40
2018-11-03T23:56:39.503Z,7.30
2018-11-03T23:59:07.757Z,7.00
